Nearby METAR Reports

 

KTEB - Teterboro, New Jersey, USA
Distance from station: ENE 2mi, 4km
Updated: 01/17/2018 5:51pm
Few Clouds
Few Clouds
 Wind from NNW
Wind: NNW 12 mph , 19 km/h, Gust: 21 mph , 33 km/h
Temperature: 28°F , -2°C
Wind Chill: 18°F , -8°C
Dew Point: 19°F , -7°C
Humidity: 69%
Barometer: 30.19 inHg , 1022.4 hPa
Clouds: Few Clouds
Visibility: 10 miles , 16 km
Cloud details: Few Clouds 3200 ft
2018/01/17 22:51 KTEB 172251Z 33010G18KT 10SM FEW032 M02/M07 A3019 RMK AO2 SLP222 T10221072
KNYC - Nyc/Central Park, New York, USA
Distance from station: SE 8mi, 13km
Updated: 01/17/2018 6:17pm
Partly cloudy
Partly cloudy
 Wind from NW
Wind: NW 9 mph , 15 km/h
Temperature: 28°F , -2°C
Wind Chill: 19°F , -7°C
Dew Point: 18°F , -8°C
Humidity: 64%
Barometer: 30.20 inHg , 1022.7 hPa
Clouds: Partly cloudy
Visibility: 10 miles , 16 km
Cloud details: Partly cloudy 2900 ft
2018/01/17 23:17 KNYC 172317Z AUTO 31008KT 260V330 10SM SCT029 M02/M08 A3020 RMK AO2 T10221078
 
KCDW - Caldwell, New Jersey, USA
Distance from station: WNW 10mi, 17km
Updated: 01/17/2018 5:53pm
Clear
Clear
 Wind from NW
Wind: NW 8 mph , 13 km/h
Temperature: 25°F , -4°C
Wind Chill: 16°F , -9°C
Dew Point: 18°F , -8°C
Humidity: 74%
Barometer: 30.20 inHg , 1022.7 hPa
Clouds: Clear
Visibility: 10 miles , 16 km
2018/01/17 22:53 KCDW 172253Z AUTO 31007KT 10SM CLR M04/M08 A3020 RMK AO2 SLP234 T10391083 TSNO
KLGA - Nyc/La Guardia, New York, USA
Distance from station: ESE 12mi, 19km
Updated: 01/17/2018 6:13pm
Overcast
Overcast
 Wind from WNW
Wind: WNW 10 mph , 17 km/h
Temperature: 28°F , -2°C
Wind Chill: 19°F , -7°C
Dew Point: 19°F , -7°C
Humidity: 69%
Barometer: 30.19 inHg , 1022.4 hPa
Clouds: Overcast
Visibility: 10 miles , 16 km
Cloud details: Overcast 3000 ft
2018/01/17 23:13 KLGA 172313Z 30009KT 10SM OVC030 M02/M07 A3019 RMK AO2 T10171067
 
KEWR - Newark, New Jersey, USA
Distance from station: SSW 12mi, 20km
Updated: 01/17/2018 5:51pm
Mostly cloudy
Mostly cloudy
 Wind from NW
Wind: NW 9 mph , 15 km/h, Gust: 22 mph , 35 km/h
Temperature: 28°F , -2°C
Wind Chill: 19°F , -7°C
Dew Point: 18°F , -8°C
Humidity: 64%
Barometer: 30.20 inHg , 1022.7 hPa
Clouds: Mostly cloudy
Visibility: 10 miles , 16 km
Cloud details: Few Clouds 2500 ft
Partly cloudy 13000 ft
Mostly cloudy 16000 ft
Mostly cloudy 25000 ft
2018/01/17 22:51 KEWR 172251Z 31008G19KT 10SM FEW025 SCT130 BKN160 BKN250 M02/M08 A3020 RMK AO2 SLP224 T10221078
KMMU - Morristown Muni, New Jersey, USA
Distance from station: WSW 18mi, 29km
Updated: 01/17/2018 5:50pm
Overcast
Overcast
 Wind from NNE
Wind: NNE 6 mph , 9 km/h
Temperature: 25°F , -4°C
Wind Chill: 18°F , -8°C
Dew Point: 18°F , -8°C
Humidity: 74%
Barometer: 30.20 inHg , 1022.7 hPa
Clouds: Overcast
Visibility: 10 miles , 16 km
Cloud details: Overcast 20000 ft
2018/01/17 22:50 KMMU 172250Z 02005KT 10SM OVC200 M04/M08 A3020
 
KJFK - Nyc/Jfk Arpt, New York, USA
Distance from station: SE 23mi, 36km
Updated: 01/17/2018 5:51pm
Overcast
Overcast
 Wind from NW
Wind: NW 15 mph , 24 km/h
Temperature: 30°F , -1°C
Wind Chill: 19°F , -7°C
Dew Point: 23°F , -5°C
Humidity: 75%
Barometer: 30.19 inHg , 1022.4 hPa
Clouds: Overcast
Visibility: 10 miles , 16 km
Cloud details: Mostly cloudy 2000 ft
Mostly cloudy 14000 ft
Overcast 25000 ft
2018/01/17 22:51 KJFK 172251Z 31013KT 10SM BKN020 BKN140 OVC250 M01/M05 A3019 RMK AO2 SLP223 T10111050 $
KHPN - White Plains, New York, USA
Distance from station: NE 25mi, 40km
Updated: 01/17/2018 5:56pm
Mostly cloudy
Mostly cloudy
 Wind from NW
Wind: NW 15 mph , 24 km/h
Temperature: 27°F , -3°C
Wind Chill: 15°F , -9°C
Dew Point: 21°F , -6°C
Humidity: 80%
Barometer: 30.14 inHg , 1020.7 hPa
Clouds: Mostly cloudy
Visibility: 7 miles , 11 km
Cloud details: Mostly cloudy 1200 ft
2018/01/17 22:56 KHPN 172256Z 31013KT 7SM BKN012 M03/M06 A3014 RMK AO2 SLP214 T10331061
 
KSMQ - Somerville, New Jersey, USA
Distance from station: WSW 34mi, 55km
Updated: 01/17/2018 5:53pm
Clear
Clear
 Wind from varies
Wind: varies 5 mph , 7 km/h
Temperature: 25°F , -4°C
Wind Chill: 19°F , -7°C
Dew Point: 16°F , -9°C
Humidity: 69%
Barometer: 30.21 inHg , 1023 hPa
Clouds: Clear
Visibility: 10 miles , 16 km
2018/01/17 22:53 KSMQ 172253Z AUTO VRB04KT 10SM CLR M04/M09 A3021 RMK AO2 SLP231 T10441094
K12N - Andover, New Jersey, USA
Distance from station: WNW 36mi, 57km
Updated: 01/17/2018 5:54pm

 Wind from varies
Wind: varies 6 mph , 9 km/h
Temperature: 19°F , -7°C
Wind Chill: 11°F , -12°C
Dew Point: 10°F , -12°C
Humidity: 68%
Barometer: 30.20 inHg , 1022.7 hPa
2018/01/17 22:54 K12N 172254Z AUTO VRB05KT M07/M12 A3020 RMK AO1 SLP241 T10671122
 
KFRG - Farmingdale, New York, USA
Distance from station: ESE 36mi, 58km
Updated: 01/17/2018 5:53pm
Overcast
Overcast
 Wind from NW
Wind: NW 8 mph , 13 km/h
Temperature: 30°F , -1°C
Wind Chill: 22°F , -6°C
Dew Point: 28°F , -2°C
Humidity: 93%
Barometer: 30.16 inHg , 1021.3 hPa
Clouds: Overcast
Visibility: 9 miles , 14 km
Cloud details: Overcast 1000 ft
2018/01/17 22:53 KFRG 172253Z 31007KT 9SM OVC010 M01/M02 A3016 RMK AO2 SLP212 T10061022
KFWN - Sussex, New Jersey, USA
Distance from station: NW 37mi, 60km
Updated: 01/17/2018 5:53pm
Clear
Clear
 Wind from varies
Wind: varies 7 mph , 11 km/h
Temperature: 21°F , -6°C
Wind Chill: 12°F , -11°C
Dew Point: 12°F , -11°C
Humidity: 68%
Barometer: 30.20 inHg , 1022.7 hPa
Clouds: Clear
Visibility: 10 miles , 16 km
2018/01/17 22:53 KFWN 172253Z AUTO VRB06KT 10SM CLR M06/M11 A3020 RMK AO2 SLP232 T10611111
 
KSWF - Newburgh/Stewart, New York, USA
Distance from station: 0 45mi, 72km
Updated: 01/17/2018 5:45pm
Overcast
Overcast
 Wind from W
Wind: W 9 mph , 15 km/h
Temperature: 25°F , -4°C
Wind Chill: 16°F , -9°C
Dew Point: 21°F , -6°C
Humidity: 86%
Barometer: 30.18 inHg , 1022 hPa
Clouds: Overcast
Visibility: 7 miles , 11 km
Cloud details: Overcast 1500 ft
2018/01/17 22:45 KSWF 172245Z 27008KT 7SM OVC015 M04/M06 A3018
KMGJ - Montgomery, New York, USA
Distance from station: NNW 47mi, 75km
Updated: 01/17/2018 5:54pm
Overcast
Overcast
 Wind from WNW
Wind: WNW 13 mph , 20 km/h, Gust: 20 mph , 31 km/h
Temperature: 25°F , -4°C
Wind Chill: 13°F , -11°C
Dew Point: 14°F , -10°C
Humidity: 63%
Barometer: 30.16 inHg , 1021.3 hPa
Clouds: Overcast
Visibility: 10 miles , 16 km
Cloud details: Mostly cloudy 2200 ft
Overcast 3400 ft
2018/01/17 22:54 KMGJ 172254Z AUTO 30011G17KT 10SM BKN022 OVC034 M04/M10 A3016 RMK AO2 SLP218 T10441100
 
KBLM - Belmar/Farmdale, New Jersey, USA
Distance from station: S 47mi, 76km
Updated: 01/17/2018 5:56pm
Clear
Clear
 Wind from WNW
Wind: WNW 12 mph , 19 km/h
Temperature: 27°F , -3°C
Wind Chill: 16°F , -9°C
Dew Point: 21°F , -6°C
Humidity: 80%
Barometer: 30.20 inHg , 1022.7 hPa
Clouds: Clear
Visibility: 10 miles , 16 km
2018/01/17 22:56 KBLM 172256Z AUTO 29010KT 10SM CLR M03/M06 A3020 RMK AO2 SLP231 T10281056 FZRANO
KDXR - Danbury, Connecticut, USA
Distance from station: NE 47mi, 76km
Updated: 01/17/2018 6:08pm
Overcast
Overcast
 Wind from NNW
Wind: NNW 12 mph , 19 km/h
Temperature: 28°F , -2°C
Wind Chill: 18°F , -8°C
Dew Point: 21°F , -6°C
Humidity: 74%
Barometer: 30.16 inHg , 1021.3 hPa
Clouds: Overcast
Visibility: 10 miles , 16 km
Cloud details: Overcast 1600 ft
2018/01/17 23:08 KDXR 172308Z 33010KT 10SM OVC016 M02/M06 A3016 RMK AO2 T10221061
 
KISP - Islip, New York, USA
Distance from station: E 52mi, 83km
Updated: 01/17/2018 6:21pm
Overcast
Overcast
 Wind from WNW
Wind: WNW 13 mph , 20 km/h
Temperature: 34°F , 1°C
Wind Chill: 25°F , -4°C
Dew Point: 28°F , -2°C
Humidity: 81%
Barometer: 30.14 inHg , 1020.7 hPa
Clouds: Overcast
Visibility: 10 miles , 16 km
Cloud details: Mostly cloudy 1600 ft
Mostly cloudy 14000 ft
Overcast 25000 ft
2018/01/17 23:21 KISP 172321Z 30011KT 10SM BKN016 BKN140 OVC250 01/M02 A3014 RMK AO2 T00061017
KBDR - Bridgeport, Connecticut, USA
Distance from station: ENE 54mi, 87km
Updated: 01/17/2018 5:52pm
Clear
Clear
 Wind from NNW
Wind: NNW 8 mph , 13 km/h
Temperature: 32°F , 0°C
Wind Chill: 25°F , -4°C
Dew Point: 27°F , -3°C
Humidity: 80%
Barometer: 30.14 inHg , 1020.7 hPa
Clouds: Clear
Visibility: 10 miles , 16 km
2018/01/17 22:52 KBDR 172252Z 33007KT 10SM CLR 00/M03 A3014 RMK AO2 SLP205 T00001028
 
KTTN - Trenton, New Jersey, USA
Distance from station: SW 55mi, 88km
Updated: 01/17/2018 5:53pm
Clear
Clear
 Wind from NW
Wind: NW 7 mph , 11 km/h
Temperature: 25°F , -4°C
Wind Chill: 17°F , -8°C
Dew Point: 16°F , -9°C
Humidity: 69%
Barometer: 30.21 inHg , 1023 hPa
Clouds: Clear
Visibility: 9 miles , 14 km
2018/01/17 22:53 KTTN 172253Z 32006KT 9SM CLR M04/M09 A3021 RMK AO2 SLP227 T10391094
KPOU - Poughkeepsie, New York, USA
Distance from station: N 55mi, 89km
Updated: 01/17/2018 5:53pm
Overcast
Overcast
 Wind from N
Wind: N 8 mph , 13 km/h
Temperature: 27°F , -3°C
Wind Chill: 19°F , -7°C
Dew Point: 19°F , -7°C
Humidity: 74%
Barometer: 30.18 inHg , 1022 hPa
Clouds: Overcast
Visibility: 10 miles , 16 km
Cloud details: Overcast 1900 ft
2018/01/17 22:53 KPOU 172253Z 01007KT 10SM OVC019 M03/M07 A3018 RMK AO2 SLP220 T10331067
 
KNEL - Lakehurst Nas, New Jersey, USA
Distance from station: SSW 59mi, 95km
Updated: 01/17/2018 6:00pm
Clear
Clear
 Wind from WNW
Wind: WNW 8 mph , 13 km/h
Temperature: 27°F , -3°C
Wind Chill: 19°F , -7°C
Dew Point: 21°F , -6°C
Humidity: 80%
Barometer: 30.17 inHg , 1021.7 hPa
Clouds: Clear
Visibility: 8 miles , 13 km
2018/01/17 23:00 KNEL 172300Z AUTO 30007KT 8SM CLR M03/M06 A3017 RMK AO2 SLP217 T10331061 FZRANO PNO $
KWRI - Wrightst/Mcguire, New Jersey, USA
Distance from station: SSW 63mi, 102km
Updated: 01/17/2018 5:56pm
Clear
Clear
 Wind from NW
Wind: NW 10 mph , 17 km/h
Temperature: 25°F , -4°C
Wind Chill: 15°F , -9°C
Dew Point: 18°F , -8°C
Humidity: 74%
Barometer: 30.19 inHg , 1022.4 hPa
Clouds: Clear
Visibility: 10 miles , 16 km
2018/01/17 22:56 KWRI 172256Z AUTO 31009KT 10SM CLR M04/M08 A3019 RMK AO2 SLP225 T10381078 $
 
KHWV - Shirley, New York, USA
Distance from station: E 64mi, 103km
Updated: 01/17/2018 5:56pm
Partly cloudy
Partly cloudy
 Wind from NW
Wind: NW 7 mph , 11 km/h
Temperature: 34°F , 1°C
Wind Chill: 28°F , -2°C
Dew Point: 32°F , 0°C
Humidity: 93%
Barometer: 30.13 inHg , 1020.3 hPa
Clouds: Partly cloudy
Visibility: 10 miles , 16 km
Cloud details: Few Clouds 800 ft
Partly cloudy 3700 ft
2018/01/17 22:56 KHWV 172256Z AUTO 31006KT 10SM FEW008 SCT037 01/00 A3013 RMK AO2 SLP204 T00060000
KMJX - Toms River, New Jersey, USA
Distance from station: S 64mi, 104km
Updated: 01/17/2018 5:56pm
Clear
Clear
 Wind from WNW
Wind: WNW 12 mph , 19 km/h
Temperature: 27°F , -3°C
Wind Chill: 16°F , -9°C
Dew Point: 21°F , -6°C
Humidity: 80%
Barometer: 30.20 inHg , 1022.7 hPa
Clouds: Clear
Visibility: 10 miles , 16 km
2018/01/17 22:56 KMJX 172256Z AUTO 30010KT 10SM CLR M03/M06 A3020 RMK AO2 SLP234 T10331056 FZRANO
 
KDYL - Doylestown, Pennsylvania, USA
Distance from station: SW 65mi, 104km
Updated: 01/17/2018 5:54pm
Clear
Clear
 Wind from NW
Wind: NW 8 mph , 13 km/h
Temperature: 23°F , -5°C
Wind Chill: 14°F , -10°C
Dew Point: 10°F , -12°C
Humidity: 58%
Barometer: 30.21 inHg , 1023 hPa
Clouds: Clear
Visibility: 10 miles , 16 km
2018/01/17 22:54 KDYL 172254Z AUTO 32007KT 10SM CLR M05/M12 A3021 RMK AO2 SLP240 T10501122
KOXC - Oxford/Waterbury, Connecticut, USA
Distance from station: NE 65mi, 105km
Updated: 01/17/2018 5:51pm
Overcast
Overcast
 Wind from varies
Wind: varies 6 mph , 9 km/h, Gust: 16 mph , 26 km/h
Temperature: 27°F , -3°C
Wind Chill: 20°F , -7°C
Dew Point: 25°F , -4°C
Humidity: 93%
Barometer: 30.12 inHg , 1020 hPa
Clouds: Overcast
Visibility: 10 miles , 16 km
Cloud details: Overcast 800 ft
2018/01/17 22:51 KOXC 172251Z VRB05G14KT 10SM OVC008 M03/M04 A3012 RMK AO2 SLP219 T10281039
 
KMSV - Monticello, New York, USA
Distance from station: NNW 69mi, 111km
Updated: 01/17/2018 5:56pm
Light snow, Partly cloudy
Light snow, Partly cloudy
 Wind from NW
Wind: NW 8 mph , 13 km/h
Temperature: 12°F , -11°C
Wind Chill: 0°F , -18°C
Dew Point: 9°F , -13°C
Humidity: 85%
Barometer: 30.16 inHg , 1021.3 hPa
Summary: Light Snow
Clouds: Partly cloudy
Visibility: 9 miles , 14 km
Cloud details: Partly cloudy 1700 ft
2018/01/17 22:56 KMSV 172256Z AUTO 32007KT 9SM -SN SCT017 M11/M13 A3016 RMK AO2 SLP237 P0000 T11061128 FZRANO TSNO
KHVN - New Haven/Tweed, Connecticut, USA
Distance from station: ENE 70mi, 112km
Updated: 01/17/2018 5:53pm
Overcast
Overcast
 Wind from NW
Wind: NW 6 mph , 9 km/h
Temperature: 34°F , 1°C
Wind Chill: 29°F , -2°C
Dew Point: 30°F , -1°C
Humidity: 87%
Barometer: 30.12 inHg , 1020 hPa
Clouds: Overcast
Visibility: 7 miles , 11 km
Cloud details: Overcast 1100 ft
2018/01/17 22:53 KHVN 172253Z 31005KT 7SM OVC011 01/M01 A3012 RMK AO2 SLP200 T00111006
 
KMPO - Mt. Pocono, Pennsylvania, USA
Distance from station: WNW 70mi, 113km
Updated: 01/17/2018 5:53pm
Clear
Clear
 Wind from NW
Wind: NW 15 mph , 24 km/h
Temperature: 12°F , -11°C
Wind Chill: -4°F , -20°C
Dew Point: 7°F , -14°C
Humidity: 79%
Barometer: 30.11 inHg , 1019.6 hPa
Clouds: Clear
Visibility: 10 miles , 16 km
2018/01/17 22:53 KMPO 172253Z AUTO 31013KT 10SM CLR M11/M14 A3011 RMK AO2 SLP228 T11111144
KPNE - Philadelphia/Ne, Pennsylvania, USA
Distance from station: SW 72mi, 116km
Updated: 01/17/2018 5:54pm
Clear
Clear
 Wind from NW
Wind: NW 12 mph , 19 km/h
Temperature: 27°F , -3°C
Wind Chill: 16°F , -9°C
Dew Point: 14°F , -10°C
Humidity: 59%
Barometer: 30.25 inHg , 1024.4 hPa
Clouds: Clear
Visibility: 10 miles , 16 km
2018/01/17 22:54 KPNE 172254Z 32010KT 10SM CLR M03/M10 A3025 RMK AO2 SLP243 T10281100
 
KABE - Allentown, Pennsylvania, USA
Distance from station: W 73mi, 117km
Updated: 01/17/2018 5:51pm
Clear
Clear
 Wind from NW
Wind: NW 8 mph , 13 km/h
Temperature: 21°F , -6°C
Wind Chill: 11°F , -12°C
Dew Point: 7°F , -14°C
Humidity: 54%
Barometer: 30.24 inHg , 1024 hPa
Clouds: Clear
Visibility: 10 miles , 16 km
2018/01/17 22:51 KABE 172251Z 32007KT 10SM CLR M06/M14 A3024 RMK AO2 SLP247 T10611144
KUKT - Quakertown Arp, Pennsylvania, USA
Distance from station: WSW 74mi, 119km
Updated: 01/17/2018 6:15pm
Clear
Clear
 
Temperature: 21°F , -6°C
Dew Point: 10°F , -12°C
Humidity: 63%
Barometer: 30.23 inHg , 1023.7 hPa
Clouds: Clear
Visibility: 10 miles , 16 km
2018/01/17 23:15 KUKT 172315Z AUTO 10SM CLR M06/M12 A3023 RMK AO1
 
KVAY - Mount Holly, New Jersey, USA
Distance from station: SSW 75mi, 120km
Updated: 01/17/2018 5:54pm
Clear
Clear
 Wind from NW
Wind: NW 7 mph , 11 km/h
Temperature: 25°F , -4°C
Wind Chill: 17°F , -8°C
Dew Point: 16°F , -9°C
Humidity: 69%
Barometer: 30.23 inHg , 1023.7 hPa
Clouds: Clear
Visibility: 10 miles , 16 km
2018/01/17 22:54 KVAY 172254Z AUTO 32006KT 10SM CLR M04/M09 A3023 RMK AO2 SLP238 T10391089
KXLL - Allentown Queen, Pennsylvania, USA
Distance from station: WSW 76mi, 122km
Updated: 01/17/2018 6:15pm
Clear
Clear
 Wind from NNW
Wind: NNW 7 mph , 11 km/h
Temperature: 23°F , -5°C
Wind Chill: 15°F , -9°C
Dew Point: 10°F , -12°C
Humidity: 58%
Barometer: 30.26 inHg , 1024.7 hPa
Clouds: Clear
Visibility: 10 miles , 16 km
2018/01/17 23:15 KXLL 172315Z AUTO 33006KT 10SM CLR M05/M12 A3026 RMK AO2
 
KFOK - Westhampton Beac, New York, USA
Distance from station: E 77mi, 124km
Updated: 01/17/2018 6:10pm
Overcast
Overcast
 Wind from NW
Wind: NW 10 mph , 17 km/h
Temperature: 34°F , 1°C
Wind Chill: 26°F , -3°C
Dew Point: 30°F , -1°C
Humidity: 87%
Barometer: 30.14 inHg , 1020.7 hPa
Clouds: Overcast
Visibility: 8 miles , 13 km
Cloud details: Overcast 500 ft
2018/01/17 23:10 KFOK 172310Z 31009KT 8SM OVC005 01/M01 A3014 RMK AO2 CIG 003V007 T00061006
KLOM - Philly Wings F, Pennsylvania, USA
Distance from station: SW 79mi, 128km
Updated: 01/17/2018 6:15pm
Clear
Clear
 Wind from WNW
Wind: WNW 5 mph , 7 km/h
Temperature: 23°F , -5°C
Wind Chill: 17°F , -8°C
Dew Point: 12°F , -11°C
Humidity: 63%
Barometer: 30.25 inHg , 1024.4 hPa
Clouds: Clear
Visibility: 10 miles , 16 km
2018/01/17 23:15 KLOM 172315Z AUTO 30004KT 10SM CLR M05/M11 A3025 RMK AO1
 
KMMK - Meriden, Connecticut, USA
Distance from station: NE 80mi, 128km
Updated: 01/17/2018 5:53pm
Overcast
Overcast
 Wind from varies
Wind: varies 6 mph , 9 km/h
Temperature: 32°F , 0°C
Wind Chill: 26°F , -3°C
Dew Point: 30°F , -1°C
Humidity: 93%
Barometer: 30.12 inHg , 1020 hPa
Clouds: Overcast
Visibility: 10 miles , 16 km
Cloud details: Overcast 1400 ft
2018/01/17 22:53 KMMK 172253Z AUTO VRB05KT 10SM OVC014 00/M01 A3012 RMK AO2 SLP202 T00001006
KPTW - Pottstown, Pennsylvania, USA
Distance from station: WSW 88mi, 141km
Updated: 01/17/2018 5:54pm
Clear
Clear
 Wind from WNW
Wind: WNW 7 mph , 11 km/h
Temperature: 19°F , -7°C
Wind Chill: 10°F , -12°C
Dew Point: 9°F , -13°C
Humidity: 63%
Barometer: 30.26 inHg , 1024.7 hPa
Clouds: Clear
Visibility: 8 miles , 13 km
2018/01/17 22:54 KPTW 172254Z AUTO 30006KT 8SM CLR M07/M13 A3026 RMK AO2 SLP247 T10671128
 
KSNC - Chester, Connecticut, USA
Distance from station: ENE 90mi, 146km
Updated: 01/17/2018 6:15pm
Overcast
Overcast
 Wind from NW
Wind: NW 6 mph , 9 km/h
Temperature: 32°F , 0°C
Wind Chill: 26°F , -3°C
Dew Point: 30°F , -1°C
Humidity: 93%
Barometer: 30.10 inHg , 1019.3 hPa
Clouds: Overcast
Visibility: 10 miles , 16 km
Cloud details: Partly cloudy 500 ft
Mostly cloudy 1100 ft
Overcast 4000 ft
2018/01/17 23:15 KSNC 172315Z AUTO 32005KT 10SM SCT005 BKN011 OVC040 00/M01 A3010 RMK AO2
KPHL - Philadelphia, Pennsylvania, USA
Distance from station: SW 91mi, 146km
Updated: 01/17/2018 5:54pm
Mostly cloudy
Mostly cloudy
 Wind from NNW
Wind: NNW 10 mph , 17 km/h
Temperature: 25°F , -4°C
Wind Chill: 15°F , -9°C
Dew Point: 10°F , -12°C
Humidity: 54%
Barometer: 30.25 inHg , 1024.4 hPa
Clouds: Mostly cloudy
Visibility: 10 miles , 16 km
Cloud details: Mostly cloudy 17000 ft
Mostly cloudy 25000 ft
2018/01/17 22:54 KPHL 172254Z 33009KT 10SM BKN170 BKN250 M04/M12 A3025 RMK AO2 SLP244 T10391122
 
KAVP - Avoca/Wilkes B., Pennsylvania, USA
Distance from station: WNW 91mi, 147km
Updated: 01/17/2018 5:54pm
Clear
Clear
 Wind from NNW
Wind: NNW 7 mph , 11 km/h
Temperature: 16°F , -9°C
Wind Chill: 6°F , -14°C
Dew Point: 7°F , -14°C
Humidity: 67%
Barometer: 30.21 inHg , 1023 hPa
Clouds: Clear
Visibility: 8 miles , 13 km
2018/01/17 22:54 KAVP 172254Z 34006KT 8SM CLR M09/M14 A3021 RMK AO2 SLP245 T10941144
KHFD - Hartford/Brainar, Connecticut, USA
Distance from station: NE 96mi, 155km
Updated: 01/17/2018 6:15pm
Overcast
Overcast
 Wind from NNW
Wind: NNW 9 mph , 15 km/h
Temperature: 34°F , 1°C
Wind Chill: 27°F , -3°C
Dew Point: 30°F , -1°C
Humidity: 87%
Barometer: 30.13 inHg , 1020.3 hPa
Clouds: Overcast
Visibility: 10 miles , 16 km
Cloud details: Mostly cloudy 1100 ft
Overcast 1800 ft
2018/01/17 23:15 KHFD 172315Z 33008KT 10SM BKN011 OVC018 01/M01 A3013 RMK AO2 T00111006
 
KHTO - East Hampton, New York, USA
Distance from station: E 96mi, 155km
Updated: 01/17/2018 6:15pm
Mist, Overcast
Mist, Overcast
 Wind from NW
Wind: NW 3 mph , 6 km/h
Temperature: 32°F , 0°C
Dew Point: 32°F , 0°C
Humidity: 100%
Barometer: 30.11 inHg , 1019.6 hPa
Summary: Mist
Clouds: Overcast
Visibility: 5 miles , 8 km
Cloud details: Mostly cloudy 400 ft
Mostly cloudy 1400 ft
Overcast 2000 ft
2018/01/17 23:15 KHTO 172315Z AUTO 31003KT 5SM BR BKN004 BKN014 OVC020 00/00 A3011 RMK AO2 T00020000
KACY - Atlantic City, New Jersey, USA
Distance from station: SSW 99mi, 160km
Updated: 01/17/2018 5:54pm
Overcast
Overcast
 Wind from NW
Wind: NW 14 mph , 22 km/h
Temperature: 27°F , -3°C
Wind Chill: 16°F , -9°C
Dew Point: 18°F , -8°C
Humidity: 69%
Barometer: 30.21 inHg , 1023 hPa
Clouds: Overcast
Visibility: 10 miles , 16 km
Cloud details: Overcast 11000 ft
2018/01/17 22:54 KACY 172254Z 31012KT 10SM OVC110 M03/M08 A3021 RMK AO2 SLP229 T10281078